PWSweather.com
Personal Weather Stations
Station Observations

OlomoucCZ

Lat: 49.5936202181, Lon: 17.2276005149

Elevation: 752

Station Type: Davis Vantage Pro 2 Activ

http://infopocasi-olomouc.cz

High Low Average
Temperature 25.4°F-3.7°C 23.8°F-4.6°C 24.3°F-4.3°C
Dew Point 21.4°F-5.9°C 18.9°F-7.3°C 20.0°F-6.7°C
Winds 12.7 mph 20.4 kmh 3.5 mph 5.6 kmh 8.0 mph NW12.9 kmh NW
Wind Gusts 20.7 mph33.3 kmh 5.8 mph9.3 kmh 12.0 mph19.3 kmh
Humidity 87% 78% 83%
Pressure 29.83 in1010.2 mb 29.68 in1005.1 mb -
Precipitation 0.00 in0.0 mm - -
Hour Temp Dew Point Humidity Winds Wind Gusts Pressure Precip Precip Rate Daily Precip Total
12:00 AM 24.7°F-4.1°C 21.4°F-5.9°C 87% 5.8 mph N9.3 kmh N 9.2 mph14.8 kmh 29.68 in1005.1 mb - 0.00 in0.0 mm 0.00 in0.0 mm
12:30 AM 24.7°F-4.1°C 21.4°F-5.9°C 87% 8.1 mph N13.0 kmh N 12.7 mph20.4 kmh 29.68 in1005.1 mb - 0.00 in0.0 mm 0.00 in0.0 mm
01:00 AM 24.5°F-4.2°C 21.2°F-6.0°C 87% 3.5 mph N5.6 kmh N 6.9 mph11.1 kmh 29.68 in1005.1 mb - 0.00 in0.0 mm 0.00 in0.0 mm
01:30 AM 24.5°F-4.2°C 21.2°F-6.0°C 87% 6.9 mph NNW11.1 kmh NNW 11.5 mph18.5 kmh 29.68 in1005.1 mb - 0.00 in0.0 mm 0.00 in0.0 mm
02:00 AM 24.3°F-4.3°C 20.7°F-6.3°C 86% 4.6 mph NNW7.4 kmh NNW 5.8 mph9.3 kmh 29.69 in1005.4 mb - 0.00 in0.0 mm 0.00 in0.0 mm
02:30 AM 24.2°F-4.3°C 20.9°F-6.2°C 87% 3.5 mph N5.6 kmh N 5.8 mph9.3 kmh 29.70 in1005.8 mb - 0.00 in0.0 mm 0.00 in0.0 mm
03:00 AM 24.0°F-4.4°C 20.7°F-6.3°C 87% 9.2 mph N14.8 kmh N 11.5 mph18.5 kmh 29.70 in1005.8 mb - 0.00 in0.0 mm 0.00 in0.0 mm
03:30 AM 24.0°F-4.4°C 20.7°F-6.3°C 87% 6.9 mph N11.1 kmh N 8.1 mph13.0 kmh 29.70 in1005.8 mb - 0.00 in0.0 mm 0.00 in0.0 mm
04:00 AM 24.1°F-4.4°C 20.5°F-6.4°C 86% 8.1 mph N13.0 kmh N 11.5 mph18.5 kmh 29.71 in1006.1 mb - 0.00 in0.0 mm 0.00 in0.0 mm
04:30 AM 24.2°F-4.3°C 20.6°F-6.3°C 86% 4.6 mph NNW7.4 kmh NNW 5.8 mph9.3 kmh 29.71 in1006.1 mb - 0.00 in0.0 mm 0.00 in0.0 mm
05:00 AM 24.0°F-4.4°C 20.7°F-6.3°C 87% 6.9 mph NW11.1 kmh NW 10.4 mph16.7 kmh 29.71 in1006.1 mb - 0.00 in0.0 mm 0.00 in0.0 mm
05:30 AM 23.9°F-4.5°C 20.6°F-6.3°C 87% 8.1 mph NNW13.0 kmh NNW 10.4 mph16.7 kmh 29.71 in1006.1 mb - 0.00 in0.0 mm 0.00 in0.0 mm
06:00 AM 23.9°F-4.5°C 20.6°F-6.3°C 87% 3.5 mph N5.6 kmh N 10.4 mph16.7 kmh 29.72 in1006.4 mb - 0.00 in0.0 mm 0.00 in0.0 mm
06:30 AM 23.9°F-4.5°C 20.3°F-6.5°C 86% 5.8 mph NNW9.3 kmh NNW 8.1 mph13.0 kmh 29.73 in1006.8 mb - 0.00 in0.0 mm 0.00 in0.0 mm
07:00 AM 23.9°F-4.5°C 20.6°F-6.3°C 87% 4.6 mph NNW7.4 kmh NNW 5.8 mph9.3 kmh 29.74 in1007.1 mb - 0.00 in0.0 mm 0.00 in0.0 mm
07:30 AM 23.8°F-4.6°C 20.2°F-6.6°C 86% 5.8 mph N9.3 kmh N 8.1 mph13.0 kmh 29.74 in1007.1 mb - 0.00 in0.0 mm 0.00 in0.0 mm
08:00 AM 23.8°F-4.6°C 20.2°F-6.6°C 86% 9.2 mph N14.8 kmh N 12.7 mph20.4 kmh 29.75 in1007.5 mb - 0.00 in0.0 mm 0.00 in0.0 mm
08:30 AM 23.8°F-4.6°C 20.2°F-6.6°C 86% 12.7 mph NNW20.4 kmh NNW 13.8 mph22.2 kmh 29.76 in1007.8 mb - 0.00 in0.0 mm 0.00 in0.0 mm
09:00 AM 23.9°F-4.5°C 20.6°F-6.3°C 87% 10.4 mph NNW16.7 kmh NNW 12.7 mph20.4 kmh 29.77 in1008.1 mb - 0.00 in0.0 mm 0.00 in0.0 mm
09:30 AM 24.0°F-4.4°C 20.4°F-6.4°C 86% 6.9 mph NNW11.1 kmh NNW 9.2 mph14.8 kmh 29.77 in1008.1 mb - 0.00 in0.0 mm 0.00 in0.0 mm
10:00 AM 23.9°F-4.5°C 20.3°F-6.5°C 86% 11.5 mph NNW18.5 kmh NNW 15.0 mph24.1 kmh 29.78 in1008.5 mb - 0.00 in0.0 mm 0.00 in0.0 mm
10:30 AM 24.1°F-4.4°C 20.2°F-6.6°C 85% 4.6 mph NW7.4 kmh NW 10.4 mph16.7 kmh 29.79 in1008.8 mb - 0.00 in0.0 mm 0.00 in0.0 mm
11:00 AM 24.4°F-4.2°C 20.5°F-6.4°C 85% 11.5 mph N18.5 kmh N 15.0 mph24.1 kmh 29.79 in1008.8 mb - 0.00 in0.0 mm 0.00 in0.0 mm
11:30 AM 24.6°F-4.1°C 19.9°F-6.7°C 82% 6.9 mph NW11.1 kmh NW 11.5 mph18.5 kmh 29.79 in1008.8 mb - 0.00 in0.0 mm 0.00 in0.0 mm
12:00 PM 25.1°F-3.8°C 19.8°F-6.8°C 80% 10.4 mph NW16.7 kmh NW 11.5 mph18.5 kmh 29.78 in1008.5 mb - 0.00 in0.0 mm 0.00 in0.0 mm
12:30 PM 25.1°F-3.8°C 19.8°F-6.8°C 80% 10.4 mph NNW16.7 kmh NNW 16.1 mph25.9 kmh 29.78 in1008.5 mb - 0.00 in0.0 mm 0.00 in0.0 mm
01:00 PM 24.9°F-3.9°C 19.9°F-6.7°C 81% 3.5 mph N5.6 kmh N 8.1 mph13.0 kmh 29.78 in1008.5 mb - 0.00 in0.0 mm 0.00 in0.0 mm
01:30 PM 25.4°F-3.7°C 19.8°F-6.8°C 79% 9.2 mph NW14.8 kmh NW 11.5 mph18.5 kmh 29.78 in1008.5 mb - 0.00 in0.0 mm 0.00 in0.0 mm
02:00 PM 25.4°F-3.7°C 19.8°F-6.8°C 79% 9.2 mph NNW14.8 kmh NNW 11.5 mph18.5 kmh 29.78 in1008.5 mb - 0.00 in0.0 mm 0.00 in0.0 mm
02:30 PM 25.1°F-3.8°C 19.2°F-7.1°C 78% 11.5 mph N18.5 kmh N 18.4 mph29.6 kmh 29.78 in1008.5 mb - 0.00 in0.0 mm 0.00 in0.0 mm
03:00 PM 24.8°F-4.0°C 19.2°F-7.1°C 79% 9.2 mph N14.8 kmh N 11.5 mph18.5 kmh 29.78 in1008.5 mb - 0.00 in0.0 mm 0.00 in0.0 mm
03:30 PM 24.5°F-4.2°C 18.9°F-7.3°C 79% 8.1 mph N13.0 kmh N 11.5 mph18.5 kmh 29.78 in1008.5 mb - 0.00 in0.0 mm 0.00 in0.0 mm
04:00 PM 24.6°F-4.1°C 19.0°F-7.2°C 79% 10.4 mph NW16.7 kmh NW 15.0 mph24.1 kmh 29.79 in1008.8 mb - 0.00 in0.0 mm 0.00 in0.0 mm
04:30 PM 24.7°F-4.1°C 19.1°F-7.2°C 79% 11.5 mph NNW18.5 kmh NNW 13.8 mph22.2 kmh 29.79 in1008.8 mb - 0.00 in0.0 mm 0.00 in0.0 mm
05:00 PM 24.5°F-4.2°C 18.9°F-7.3°C 79% 8.1 mph NNW13.0 kmh NNW 11.5 mph18.5 kmh 29.80 in1009.1 mb - 0.00 in0.0 mm 0.00 in0.0 mm
05:30 PM 24.6°F-4.1°C 19.0°F-7.2°C 79% 10.4 mph N16.7 kmh N 11.5 mph18.5 kmh 29.80 in1009.1 mb - 0.00 in0.0 mm 0.00 in0.0 mm
06:00 PM 24.5°F-4.2°C 19.2°F-7.1°C 80% 12.7 mph N20.4 kmh N 19.6 mph31.5 kmh 29.81 in1009.5 mb - 0.00 in0.0 mm 0.00 in0.0 mm
06:30 PM 24.5°F-4.2°C 19.2°F-7.1°C 80% 11.5 mph NNW18.5 kmh NNW 17.3 mph27.8 kmh 29.81 in1009.5 mb - 0.00 in0.0 mm 0.00 in0.0 mm
07:00 PM 24.3°F-4.3°C 19.3°F-7.1°C 81% 12.7 mph NNW20.4 kmh NNW 15.0 mph24.1 kmh 29.81 in1009.5 mb - 0.00 in0.0 mm 0.00 in0.0 mm
07:30 PM 24.2°F-4.3°C 19.8°F-6.8°C 83% 12.7 mph NNW20.4 kmh NNW 20.7 mph33.3 kmh 29.82 in1009.8 mb - 0.00 in0.0 mm 0.00 in0.0 mm
08:00 PM 24.2°F-4.3°C 19.5°F-6.9°C 82% 11.5 mph NNW18.5 kmh NNW 13.8 mph22.2 kmh 29.82 in1009.8 mb - 0.00 in0.0 mm 0.00 in0.0 mm
08:30 PM 24.1°F-4.4°C 19.7°F-6.8°C 83% 5.8 mph NW9.3 kmh NW 9.2 mph14.8 kmh 29.82 in1009.8 mb - 0.00 in0.0 mm 0.00 in0.0 mm
09:00 PM 24.1°F-4.4°C 19.7°F-6.8°C 83% 11.5 mph NNW18.5 kmh NNW 13.8 mph22.2 kmh 29.82 in1009.8 mb - 0.00 in0.0 mm 0.00 in0.0 mm
09:30 PM 24.1°F-4.4°C 19.4°F-7.0°C 82% 5.8 mph N9.3 kmh N 10.4 mph16.7 kmh 29.83 in1010.2 mb - 0.00 in0.0 mm 0.00 in0.0 mm
10:00 PM 24.0°F-4.4°C 19.6°F-6.9°C 83% 8.1 mph NNW13.0 kmh NNW 11.5 mph18.5 kmh 29.83 in1010.2 mb - 0.00 in0.0 mm 0.00 in0.0 mm
10:30 PM 24.1°F-4.4°C 19.4°F-7.0°C 82% 8.1 mph NW13.0 kmh NW 11.5 mph18.5 kmh 29.83 in1010.2 mb - 0.00 in0.0 mm 0.00 in0.0 mm
11:00 PM 24.1°F-4.4°C 19.4°F-7.0°C 82% 6.9 mph N11.1 kmh N 11.5 mph18.5 kmh 29.83 in1010.2 mb - 0.00 in0.0 mm 0.00 in0.0 mm
11:30 PM 24.2°F-4.3°C 19.8°F-6.8°C 83% 3.5 mph N5.6 kmh N 8.1 mph13.0 kmh 29.83 in1010.2 mb - 0.00 in0.0 mm 0.00 in0.0 mm